Time;durP1;ratioP1;P1;durP2;ratioP2;P2;SDS_P1;SDS_P2;PMS_P1;PMS_P2;Temp;Humidity;BMP_temperature;BMP_pressure;BME280_temperature;BME280_humidity;BME280_pressure;Samples;Min_cycle;Max_cycle;Signal;HPM_P1;HPM_P2
2023/08/17 00:00:50;;;;;;;;;;;;;;;24.55;66.76;100824.36;103874;277;38253;-73
2023/08/17 00:03:40;;;;;;;10.40;8.80;;;;;;;24.45;66.95;100826.17;103863;277;38338;-75
2023/08/17 00:06:15;;;;;;;10.00;9.00;;;;;;;24.44;66.94;100832.50;103823;277;38791;-74
2023/08/17 00:08:52;;;;;;;11.00;9.40;;;;;;;24.42;67.32;100836.10;103824;277;38738;-73
2023/08/17 00:11:28;;;;;;;10.20;9.10;;;;;;;24.38;67.20;100831.97;103893;277;38367;-73
2023/08/17 00:14:05;;;;;;;9.70;8.80;;;;;;;24.36;67.59;100834.41;103778;277;38813;-73
2023/08/17 00:16:39;;;;;;;10.80;9.30;;;;;;;24.34;67.79;100836.39;103860;277;38623;-73
2023/08/17 00:19:17;;;;;;;9.60;8.60;;;;;;;24.33;68.19;100833.28;103085;277;897335;-72
2023/08/17 00:21:54;;;;;;;13.80;9.80;;;;;;;24.30;68.37;100840.09;103884;277;38465;-73
2023/08/17 00:24:31;;;;;;;10.20;9.00;;;;;;;24.24;68.54;100837.79;103856;277;38275;-73
2023/08/17 00:27:06;;;;;;;9.90;8.50;;;;;;;24.20;68.99;100837.77;103856;277;39427;-73
2023/08/17 00:29:40;;;;;;;9.50;8.40;;;;;;;24.17;69.28;100840.58;103800;277;38787;-73
2023/08/17 00:32:17;;;;;;;10.60;8.20;;;;;;;24.14;69.55;100838.08;103849;277;39932;-76
2023/08/17 00:34:51;;;;;;;9.10;8.20;;;;;;;24.13;69.91;100839.81;103837;277;38685;-74
2023/08/17 00:37:31;;;;;;;10.60;8.30;;;;;;;24.15;70.02;100841.08;103782;278;38817;-73
2023/08/17 00:40:07;;;;;;;9.60;8.60;;;;;;;24.17;70.07;100836.06;103824;277;39451;-74
2023/08/17 00:42:42;;;;;;;12.00;9.50;;;;;;;24.17;69.96;100834.79;103911;277;38272;-73
2023/08/17 00:45:17;;;;;;;12.80;9.10;;;;;;;24.17;70.13;100835.05;103833;277;38552;-73
2023/08/17 00:47:51;;;;;;;10.60;9.50;;;;;;;24.13;70.16;100839.48;103861;266;38373;-75
2023/08/17 00:50:25;;;;;;;10.20;9.10;;;;;;;24.11;70.23;100839.27;103814;277;40667;-75
2023/08/17 00:52:59;;;;;;;9.70;8.70;;;;;;;24.10;70.36;100838.48;103841;277;38401;-73
2023/08/17 00:55:33;;;;;;;13.70;9.20;;;;;;;24.09;70.38;100841.63;103875;277;39393;-73
2023/08/17 00:58:11;;;;;;;10.10;9.10;;;;;;;24.08;70.54;100847.91;103801;277;38230;-74
2023/08/17 01:00:56;;;;;;;10.10;9.10;;;;;;;24.09;70.59;100849.96;103854;277;38260;-73
2023/08/17 01:03:32;;;;;;;9.20;8.40;;;;;;;24.05;70.44;100849.61;103829;278;38326;-73
2023/08/17 01:06:06;;;;;;;10.30;9.20;;;;;;;24.02;70.72;100848.08;103878;279;39893;-73
2023/08/17 01:08:48;;;;;;;10.00;8.10;;;;;;;24.01;71.24;100846.44;103827;279;38246;-73
2023/08/17 01:11:30;;;;;;;9.40;8.40;;;;;;;24.00;71.47;100846.15;103843;279;38511;-74
2023/08/17 01:14:16;;;;;;;10.10;9.10;;;;;;;24.02;71.48;100842.89;103825;279;39497;-73
2023/08/17 01:16:57;;;;;;;10.30;9.30;;;;;;;24.05;71.05;100845.19;103704;279;38346;-73
2023/08/17 01:19:32;;;;;;;10.60;8.80;;;;;;;24.06;71.24;100847.39;103793;278;38488;-73
2023/08/17 01:22:11;;;;;;;10.30;9.30;;;;;;;24.05;71.15;100847.66;103825;279;38273;-74
2023/08/17 01:24:46;;;;;;;11.50;9.40;;;;;;;24.01;71.42;100849.66;103806;279;38507;-73
2023/08/17 01:27:22;;;;;;;10.20;8.80;;;;;;;23.98;71.38;100841.50;103735;279;38268;-74
2023/08/17 01:29:56;;;;;;;10.80;9.10;;;;;;;23.99;71.55;100841.23;103806;279;38679;-73
2023/08/17 01:32:33;;;;;;;10.30;9.30;;;;;;;24.01;71.57;100837.29;103810;278;39711;-73
2023/08/17 01:35:12;;;;;;;11.80;10.60;;;;;;;24.01;71.17;100838.05;103830;279;38750;-73
2023/08/17 01:37:46;;;;;;;11.20;10.20;;;;;;;23.99;71.34;100839.11;103846;279;38982;-75
2023/08/17 01:40:23;;;;;;;11.70;9.40;;;;;;;23.99;71.40;100838.23;103716;279;38946;-74
2023/08/17 01:42:56;;;;;;;10.60;9.50;;;;;;;23.97;71.54;100830.20;103824;279;38486;-74
2023/08/17 01:45:30;;;;;;;10.70;9.60;;;;;;;23.96;71.62;100824.23;103811;279;38533;-75
2023/08/17 01:48:07;;;;;;;10.80;9.80;;;;;;;23.96;71.40;100826.15;103828;279;38852;-73
2023/08/17 01:50:45;;;;;;;11.40;10.20;;;;;;;23.92;71.59;100831.14;103800;279;38817;-73
2023/08/17 01:53:19;;;;;;;10.00;9.10;;;;;;;23.88;72.05;100833.62;103838;279;38223;-73
2023/08/17 01:55:56;;;;;;;10.00;9.00;;;;;;;23.87;72.37;100839.23;103827;279;38511;-74
2023/08/17 01:58:30;;;;;;;9.30;8.50;;;;;;;23.85;72.55;100841.02;103812;279;40154;-73
2023/08/17 02:01:04;;;;;;;11.90;10.50;;;;;;;23.85;72.21;100838.73;103847;278;39473;-74
2023/08/17 02:03:37;;;;;;;13.20;10.60;;;;;;;23.85;72.33;100838.75;103832;279;38244;-73
2023/08/17 02:06:12;;;;;;;11.80;10.60;;;;;;;23.84;72.17;100846.32;103867;279;38261;-73
2023/08/17 02:08:47;;;;;;;12.80;10.50;;;;;;;23.81;72.12;100851.92;103813;279;38772;-73
2023/08/17 02:11:23;;;;;;;11.90;10.70;;;;;;;23.78;72.20;100847.21;103853;279;38398;-73
2023/08/17 02:14:00;;;;;;;12.10;10.90;;;;;;;23.76;72.33;100839.38;103803;279;38259;-73
2023/08/17 02:16:35;;;;;;;14.80;11.10;;;;;;;23.75;72.29;100830.34;103864;278;39397;-74
2023/08/17 02:19:09;;;;;;;12.50;11.20;;;;;;;23.76;72.29;100824.59;103804;279;39214;-74
2023/08/17 02:21:45;;;;;;;12.90;11.70;;;;;;;23.75;72.37;100826.94;103817;279;39430;-74
2023/08/17 02:24:19;;;;;;;13.30;11.20;;;;;;;23.74;72.18;100828.50;103808;279;38931;-73
2023/08/17 02:26:53;;;;;;;14.70;11.50;;;;;;;23.74;72.22;100826.48;103804;279;39049;-73
2023/08/17 02:29:27;;;;;;;13.00;11.70;;;;;;;23.73;72.23;100827.99;103817;279;38419;-73
2023/08/17 02:32:01;;;;;;;13.20;11.90;;;;;;;23.74;72.22;100828.61;103825;279;38529;-74
2023/08/17 02:34:35;;;;;;;13.90;12.00;;;;;;;23.75;72.34;100833.74;103426;279;174282;-76
2023/08/17 02:37:09;;;;;;;14.30;11.80;;;;;;;23.76;72.19;100828.48;103855;279;38786;-75
2023/08/17 02:39:45;;;;;;;13.40;12.00;;;;;;;23.78;72.23;100830.75;103827;279;38413;-74
2023/08/17 02:42:19;;;;;;;13.60;12.20;;;;;;;23.81;72.14;100838.38;103836;278;39520;-73
2023/08/17 02:44:55;;;;;;;14.20;12.80;;;;;;;23.83;72.19;100833.92;103824;279;38523;-75
2023/08/17 02:47:34;;;;;;;17.00;12.80;;;;;;;23.83;71.99;100830.02;103843;279;39555;-75
2023/08/17 02:50:10;;;;;;;16.00;12.80;;;;;;;23.84;71.75;100823.09;103825;278;38882;-73
2023/08/17 02:52:45;;;;;;;15.40;12.60;;;;;;;23.85;71.72;100817.30;103774;279;39912;-73
2023/08/17 02:55:19;;;;;;;14.40;12.90;;;;;;;23.87;71.49;100818.63;103780;278;38575;-73
2023/08/17 02:57:54;;;;;;;14.10;12.30;;;;;;;23.88;71.22;100819.04;103844;279;38270;-74
2023/08/17 03:00:28;;;;;;;13.60;11.70;;;;;;;23.90;71.09;100821.17;103816;279;39430;-74
2023/08/17 03:03:02;;;;;;;13.90;11.90;;;;;;;23.93;70.96;100827.85;103868;278;39007;-73
2023/08/17 03:05:37;;;;;;;14.90;11.80;;;;;;;23.94;70.58;100833.47;103809;279;38631;-73
2023/08/17 03:08:14;;;;;;;13.70;12.10;;;;;;;23.91;70.62;100836.95;103727;279;38890;-73
2023/08/17 03:10:48;;;;;;;13.60;12.10;;;;;;;23.90;70.95;100837.94;103817;279;39454;-73
2023/08/17 03:13:22;;;;;;;15.70;12.80;;;;;;;23.87;71.09;100843.16;103713;279;174607;-73
2023/08/17 03:16:03;;;;;;;16.90;12.50;;;;;;;23.88;71.03;100842.77;103820;279;39680;-75
2023/08/17 03:18:37;;;;;;;14.00;12.50;;;;;;;23.90;70.96;100847.38;103705;279;38935;-73
2023/08/17 03:21:13;;;;;;;15.50;12.90;;;;;;;23.92;70.83;100847.20;103717;279;39446;-73
2023/08/17 03:23:47;;;;;;;14.20;12.70;;;;;;;23.90;71.07;100853.57;103823;278;38586;-73
2023/08/17 03:26:24;;;;;;;17.30;12.50;;;;;;;23.90;71.02;100851.84;103854;275;38354;-75
2023/08/17 03:29:00;;;;;;;14.50;12.90;;;;;;;23.88;71.02;100857.68;103833;278;38667;-74
2023/08/17 03:31:34;;;;;;;13.60;12.00;;;;;;;23.86;71.12;100865.01;103820;279;38515;-73
2023/08/17 03:34:08;;;;;;;13.90;11.80;;;;;;;23.83;71.40;100864.71;103836;279;39061;-73
2023/08/17 03:36:45;;;;;;;14.90;12.80;;;;;;;23.82;71.71;100865.49;103730;280;39904;-74
2023/08/17 03:39:19;;;;;;;14.30;12.90;;;;;;;23.80;71.97;100866.97;103801;279;38989;-75
2023/08/17 03:41:55;;;;;;;14.50;12.80;;;;;;;23.74;71.96;100868.85;103823;279;38802;-74
2023/08/17 03:44:29;;;;;;;15.10;12.40;;;;;;;23.74;71.74;100864.65;103278;278;649446;-74
2023/08/17 03:47:03;;;;;;;14.10;12.10;;;;;;;23.75;71.55;100866.30;103816;279;38468;-73
2023/08/17 03:49:39;;;;;;;16.30;12.40;;;;;;;23.76;71.37;100866.02;103785;279;39384;-73
2023/08/17 03:52:16;;;;;;;17.30;12.40;;;;;;;23.76;71.43;100867.45;103822;278;38241;-74
2023/08/17 03:54:50;;;;;;;14.10;12.50;;;;;;;23.77;71.49;100866.11;103798;275;38359;-73
2023/08/17 03:57:26;;;;;;;14.40;12.70;;;;;;;23.79;71.34;100864.73;103786;279;38341;-74
2023/08/17 04:00:00;;;;;;;14.10;12.30;;;;;;;23.81;71.32;100869.40;103775;279;38403;-74
2023/08/17 04:02:35;;;;;;;13.30;11.70;;;;;;;23.82;71.19;100875.88;103721;279;38508;-73
2023/08/17 04:05:10;;;;;;;13.20;11.80;;;;;;;23.85;70.90;100876.27;103817;279;38341;-73
2023/08/17 04:07:47;;;;;;;15.80;12.30;;;;;;;23.89;70.67;100871.88;103836;278;40137;-73
2023/08/17 04:10:21;;;;;;;14.00;12.20;;;;;;;23.91;70.72;100866.30;103820;278;40027;-75
2023/08/17 04:13:00;;;;;;;13.30;11.80;;;;;;;23.95;70.54;100867.97;103769;279;39477;-73
2023/08/17 04:15:36;;;;;;;22.60;11.90;;;;;;;23.95;70.33;100872.40;103832;279;39502;-73
2023/08/17 04:18:12;;;;;;;13.70;11.60;;;;;;;23.95;70.34;100880.10;103873;279;38508;-74
2023/08/17 04:20:50;;;;;;;13.00;11.30;;;;;;;23.97;70.25;100880.29;103857;278;38376;-75
2023/08/17 04:23:26;;;;;;;13.10;11.40;;;;;;;24.01;70.28;100875.67;103791;279;38275;-73
2023/08/17 04:26:01;;;;;;;13.90;11.80;;;;;;;24.04;70.23;100875.53;103861;279;38501;-74
2023/08/17 04:28:36;;;;;;;15.60;11.20;;;;;;;24.08;70.07;100876.80;103797;279;38457;-73
2023/08/17 04:31:12;;;;;;;12.20;11.00;;;;;;;24.11;69.97;100879.06;103838;279;38880;-74
2023/08/17 04:33:56;;;;;;;12.60;11.30;;;;;;;24.14;69.90;100876.70;103843;275;39987;-73
2023/08/17 04:36:29;;;;;;;13.10;11.20;;;;;;;24.17;69.88;100874.25;103845;279;38302;-74
2023/08/17 04:39:06;;;;;;;13.00;10.40;;;;;;;24.21;69.52;100873.36;103717;279;39262;-73
2023/08/17 04:41:41;;;;;;;13.20;11.40;;;;;;;24.27;69.32;100873.02;103863;279;38966;-73
2023/08/17 04:44:17;;;;;;;13.50;10.50;;;;;;;24.32;69.02;100872.20;103795;279;38939;-73
2023/08/17 04:46:51;;;;;;;14.10;10.50;;;;;;;24.38;68.75;100876.53;103845;278;38265;-74
2023/08/17 04:49:26;;;;;;;11.80;10.20;;;;;;;24.45;68.68;100874.13;103824;279;38412;-74
2023/08/17 04:51:59;;;;;;;12.60;10.20;;;;;;;24.55;68.57;100872.86;103769;279;38406;-74
2023/08/17 04:54:33;;;;;;;10.90;9.70;;;;;;;24.74;68.49;100873.19;103737;279;40423;-74
2023/08/17 04:57:10;;;;;;;12.10;9.70;;;;;;;24.90;67.72;100874.34;103820;279;38921;-74
2023/08/17 04:59:50;;;;;;;10.20;8.80;;;;;;;25.02;66.78;100878.70;103800;279;38406;-73
2023/08/17 05:02:27;;;;;;;11.50;9.20;;;;;;;25.10;66.12;100882.61;103821;279;38718;-75
2023/08/17 05:05:05;;;;;;;13.20;9.80;;;;;;;25.17;65.70;100881.46;103846;279;38221;-76
2023/08/17 05:07:41;;;;;;;12.40;9.50;;;;;;;25.25;65.50;100881.80;103842;279;38750;-75
2023/08/17 05:10:16;;;;;;;10.30;8.90;;;;;;;25.34;65.30;100882.42;103828;279;38301;-73
2023/08/17 05:12:53;;;;;;;10.30;9.30;;;;;;;25.42;64.99;100885.89;103828;278;38494;-75
2023/08/17 05:15:29;;;;;;;10.20;9.20;;;;;;;25.50;64.53;100888.79;103728;279;174191;-73
2023/08/17 05:18:03;;;;;;;11.50;8.60;;;;;;;25.56;63.98;100883.77;103876;279;38354;-73
2023/08/17 05:20:39;;;;;;;9.40;8.30;;;;;;;25.61;63.22;100883.05;103844;278;38733;-73
2023/08/17 05:23:18;;;;;;;9.90;8.40;;;;;;;25.65;62.29;100888.00;103841;279;39444;-74
2023/08/17 05:25:54;;;;;;;9.30;7.40;;;;;;;25.69;61.80;100889.88;103815;278;38409;-73
2023/08/17 05:28:29;;;;;;;11.30;7.90;;;;;;;25.69;61.08;100890.71;103836;279;38446;-75
2023/08/17 05:31:11;;;;;;;8.60;7.70;;;;;;;25.68;60.88;100887.39;103834;278;38442;-74
2023/08/17 05:33:45;;;;;;;9.90;8.00;;;;;;;25.67;60.53;100887.70;103797;266;38477;-76
2023/08/17 05:36:21;;;;;;;10.20;7.60;;;;;;;25.66;60.39;100886.71;103739;276;39607;-74
2023/08/17 05:38:55;;;;;;;9.80;7.00;;;;;;;25.65;60.09;100888.04;103813;279;38825;-73
2023/08/17 05:41:29;;;;;;;10.10;7.50;;;;;;;25.63;59.88;100884.85;103856;279;38245;-74
2023/08/17 05:44:03;;;;;;;8.00;7.20;;;;;;;25.60;59.83;100882.96;103818;278;39653;-74
2023/08/17 05:46:41;;;;;;;10.50;7.30;;;;;;;25.60;59.64;100883.73;103823;279;40165;-75
2023/08/17 05:49:16;;;;;;;10.10;7.60;;;;;;;25.56;59.37;100881.02;103795;278;38671;-74
2023/08/17 05:51:50;;;;;;;11.00;7.70;;;;;;;25.55;59.53;100874.31;103869;279;39328;-75
2023/08/17 05:54:24;;;;;;;9.10;7.20;;;;;;;25.56;59.54;100870.73;103762;279;38244;-73
2023/08/17 05:56:58;;;;;;;8.10;6.70;;;;;;;25.56;59.59;100872.48;103851;279;39709;-73
2023/08/17 05:59:32;;;;;;;9.70;7.40;;;;;;;25.56;59.07;100870.67;103803;279;38647;-73
2023/08/17 06:02:08;;;;;;;10.40;7.20;;;;;;;25.57;59.00;100869.02;103794;279;40003;-74
2023/08/17 06:04:41;;;;;;;9.40;6.90;;;;;;;25.59;58.96;100869.91;103841;279;38479;-73
2023/08/17 06:07:18;;;;;;;8.50;7.20;;;;;;;25.60;59.02;100870.45;103875;279;39100;-73
2023/08/17 06:09:52;;;;;;;10.10;7.10;;;;;;;25.62;58.86;100868.86;103773;279;38277;-73
2023/08/17 06:12:26;;;;;;;10.50;7.20;;;;;;;25.64;58.82;100870.60;103860;278;38824;-72
2023/08/17 06:15:00;;;;;;;10.60;7.30;;;;;;;25.67;58.65;100873.56;103789;279;38851;-70
2023/08/17 06:17:34;;;;;;;9.10;7.20;;;;;;;25.72;58.58;100868.63;103817;279;38564;-72
2023/08/17 06:20:15;;;;;;;8.50;6.80;;;;;;;25.78;58.58;100868.54;103682;280;38498;-73
2023/08/17 06:22:50;;;;;;;10.00;7.00;;;;;;;25.83;58.23;100874.02;103843;279;39160;-73
2023/08/17 06:25:25;;;;;;;9.20;6.30;;;;;;;25.90;57.79;100874.17;103853;279;38252;-73
2023/08/17 06:28:00;;;;;;;11.30;7.00;;;;;;;26.01;58.01;100877.58;103837;279;38254;-73
2023/08/17 06:30:37;;;;;;;8.50;6.50;;;;;;;26.13;57.63;100878.33;103808;279;39698;-71
2023/08/17 06:33:11;;;;;;;10.30;7.00;;;;;;;26.25;57.44;100878.96;103840;278;38333;-71
2023/08/17 06:35:46;;;;;;;9.40;6.70;;;;;;;26.37;57.31;100884.48;103800;279;38816;-71
2023/08/17 06:38:24;;;;;;;9.70;7.50;;;;;;;26.49;57.38;100886.38;103839;279;39009;-72
2023/08/17 06:41:00;;;;;;;10.70;7.20;;;;;;;26.61;57.18;100888.20;103823;279;38263;-73
2023/08/17 06:43:39;;;;;;;9.10;6.90;;;;;;;26.71;56.44;100887.25;103795;279;38258;-72
2023/08/17 06:46:13;;;;;;;8.50;6.30;;;;;;;26.81;56.44;100888.48;103890;278;38230;-72
2023/08/17 06:48:48;;;;;;;11.90;6.50;;;;;;;26.90;55.71;100892.75;103798;278;39698;-74
2023/08/17 06:51:22;;;;;;;9.20;7.30;;;;;;;27.00;55.48;100892.23;103701;280;38882;-74
2023/08/17 06:53:58;;;;;;;10.40;6.00;;;;;;;27.11;55.24;100890.01;103799;278;39912;-74
2023/08/17 06:56:32;;;;;;;9.90;6.90;;;;;;;27.21;54.68;100888.42;103868;279;39439;-74
2023/08/17 06:59:09;;;;;;;14.90;6.80;;;;;;;27.30;54.50;100891.17;103694;279;38245;-73
2023/08/17 07:01:42;;;;;;;9.80;6.30;;;;;;;27.43;54.24;100893.58;103836;278;38245;-74
2023/08/17 07:04:18;;;;;;;10.80;6.90;;;;;;;27.57;54.42;100898.46;103809;278;38774;-74
2023/08/17 07:06:53;;;;;;;8.00;6.30;;;;;;;27.74;54.08;100902.09;103818;279;38666;-74
2023/08/17 07:09:29;;;;;;;10.80;6.40;;;;;;;27.91;53.64;100905.00;103850;267;38455;-74
2023/08/17 07:12:03;;;;;;;12.80;7.40;;;;;;;28.12;53.34;100903.41;103836;278;40089;-74
2023/08/17 07:14:37;;;;;;;9.80;6.70;;;;;;;28.28;52.69;100905.42;103807;278;38500;-73
2023/08/17 07:17:11;;;;;;;9.20;6.70;;;;;;;28.41;52.07;100902.53;103836;279;39904;-73
2023/08/17 07:19:48;;;;;;;9.70;6.60;;;;;;;28.50;51.73;100903.84;103813;279;39261;-73
2023/08/17 07:22:23;;;;;;;11.30;7.10;;;;;;;28.59;51.22;100904.25;103720;279;38233;-74
2023/08/17 07:24:57;;;;;;;11.90;6.90;;;;;;;28.65;50.84;100908.54;103803;279;38248;-74
2023/08/17 07:27:35;;;;;;;14.50;7.10;;;;;;;28.72;50.74;100904.56;103740;280;38255;-75
2023/08/17 07:30:16;;;;;;;9.90;6.50;;;;;;;28.89;50.83;100902.14;103179;279;886552;-75
2023/08/17 07:32:53;;;;;;;9.80;6.90;;;;;;;29.13;51.09;100902.95;103715;279;38794;-73
2023/08/17 07:35:30;;;;;;;12.70;7.10;;;;;;;29.39;50.76;100901.13;103698;279;174362;-73
2023/08/17 07:38:06;;;;;;;9.50;6.50;;;;;;;29.68;49.89;100902.33;103853;279;38336;-73
2023/08/17 07:40:42;;;;;;;11.80;6.40;;;;;;;29.86;48.97;100904.17;103851;278;38264;-73
2023/08/17 07:43:17;;;;;;;9.80;7.10;;;;;;;29.88;48.21;100900.61;103812;274;38257;-73
2023/08/17 07:45:57;;;;;;;11.70;6.80;;;;;;;29.86;47.82;100903.63;103817;278;39674;-73
2023/08/17 07:48:33;;;;;;;10.90;7.40;;;;;;;29.75;47.79;100894.67;103680;280;38445;-73
2023/08/17 07:51:10;;;;;;;12.30;6.60;;;;;;;29.62;48.04;100892.73;103236;278;889382;-74
2023/08/17 07:53:44;;;;;;;12.70;6.70;;;;;;;29.51;48.46;100899.48;103788;279;38220;-75
2023/08/17 07:56:24;;;;;;;11.20;6.50;;;;;;;29.34;48.06;100893.44;103744;279;38238;-74
2023/08/17 07:59:00;;;;;;;12.80;7.10;;;;;;;29.22;48.80;100888.11;103807;279;39115;-73
2023/08/17 08:01:33;;;;;;;8.60;6.70;;;;;;;29.21;49.75;100889.48;103867;279;38713;-73
2023/08/17 08:04:08;;;;;;;7.90;7.10;;;;;;;29.25;50.18;100889.58;103815;279;38253;-73
2023/08/17 08:06:43;;;;;;;10.30;7.10;;;;;;;29.34;49.57;100888.28;103841;278;38602;-73
2023/08/17 08:09:17;;;;;;;8.00;7.00;;;;;;;29.44;49.55;100891.08;103825;279;39248;-73
2023/08/17 08:11:51;;;;;;;11.50;6.90;;;;;;;29.57;49.52;100891.89;103856;278;38352;-73
2023/08/17 08:14:26;;;;;;;11.70;7.10;;;;;;;29.69;49.09;100896.98;103847;279;39137;-75
2023/08/17 08:17:03;;;;;;;8.00;7.20;;;;;;;29.80;48.83;100894.64;103734;279;38283;-73
2023/08/17 08:19:39;;;;;;;12.60;7.20;;;;;;;29.96;48.67;100895.21;103720;279;38448;-73
2023/08/17 08:22:13;;;;;;;10.20;7.30;;;;;;;30.07;48.12;100898.34;103806;279;38315;-74
2023/08/17 08:24:48;;;;;;;10.30;7.20;;;;;;;30.11;47.87;100897.31;103814;275;38316;-74
2023/08/17 08:27:23;;;;;;;11.40;6.90;;;;;;;30.14;48.05;100898.94;103861;278;38235;-74
2023/08/17 08:29:57;;;;;;;8.60;7.20;;;;;;;30.18;47.69;100900.31;103848;279;38549;-74
2023/08/17 08:32:36;;;;;;;8.90;7.20;;;;;;;30.23;47.13;100906.31;103841;279;38283;-73
2023/08/17 08:35:13;;;;;;;9.20;7.80;;;;;;;30.28;46.79;100906.56;103764;279;39932;-73
2023/08/17 08:37:49;;;;;;;8.40;6.80;;;;;;;30.32;46.57;100906.05;103828;279;38648;-74
2023/08/17 08:40:26;;;;;;;10.10;7.00;;;;;;;30.38;46.42;100903.48;103811;279;38632;-73
2023/08/17 08:43:04;;;;;;;11.00;7.50;;;;;;;30.42;46.48;100901.35;103835;278;38500;-75
2023/08/17 08:45:40;;;;;;;10.40;7.60;;;;;;;30.59;46.76;100903.92;103679;279;38589;-73
2023/08/17 08:48:17;;;;;;;11.50;6.60;;;;;;;30.84;46.06;100901.63;103832;279;38271;-75
2023/08/17 08:50:57;;;;;;;9.90;6.70;;;;;;;31.23;46.01;100896.31;103813;266;38297;-74
2023/08/17 08:53:39;;;;;;;9.30;7.20;;;;;;;31.76;45.33;100894.91;103813;279;38404;-74
2023/08/17 08:56:15;;;;;;;12.10;7.00;;;;;;;32.31;44.33;100894.34;103906;279;38401;-76
2023/08/17 08:58:52;;;;;;;12.50;7.40;;;;;;;32.77;43.78;100897.41;103790;279;39709;-74
2023/08/17 09:01:36;;;;;;;8.90;7.10;;;;;;;33.38;42.83;100897.79;103831;279;39391;-74
2023/08/17 09:04:14;;;;;;;13.50;7.20;;;;;;;34.20;42.02;100904.70;103833;278;38301;-75
2023/08/17 09:06:49;;;;;;;8.50;7.00;;;;;;;34.94;40.77;100899.92;103873;279;38521;-74
2023/08/17 09:09:26;;;;;;;12.20;6.80;;;;;;;35.62;39.04;100902.14;103812;279;39146;-74
2023/08/17 09:12:05;;;;;;;11.10;7.60;;;;;;;36.14;37.82;100899.21;103846;279;38226;-74
2023/08/17 09:14:42;;;;;;;8.60;7.20;;;;;;;36.55;36.67;100903.05;103789;279;39308;-74
2023/08/17 09:17:25;;;;;;;8.30;7.00;;;;;;;36.95;35.57;100897.11;103862;279;38424;-74
2023/08/17 09:20:07;;;;;;;9.70;7.00;;;;;;;37.49;34.50;100894.66;103565;280;175093;-74
2023/08/17 09:22:45;;;;;;;8.00;6.40;;;;;;;38.03;33.81;100896.55;103828;279;39173;-75
2023/08/17 09:25:29;;;;;;;8.00;6.90;;;;;;;38.39;33.21;100895.06;103818;279;38374;-75
2023/08/17 09:28:07;;;;;;;9.40;7.50;;;;;;;38.63;32.88;100898.80;103863;278;38749;-74
2023/08/17 09:31:03;;;;;;;8.40;7.10;;;;;;;38.80;32.10;100898.44;103806;279;38751;-74
2023/08/17 09:33:44;;;;;;;9.80;7.50;;;;;;;38.77;31.94;100897.00;103773;279;38858;-74
2023/08/17 09:36:20;;;;;;;7.60;6.90;;;;;;;38.70;31.07;100899.73;103766;278;174006;-75
2023/08/17 09:38:57;;;;;;;10.30;7.70;;;;;;;38.57;31.98;100895.51;103839;278;38278;-75
2023/08/17 09:41:31;;;;;;;10.90;7.10;;;;;;;38.40;31.35;100895.13;103769;279;39003;-74
2023/08/17 09:44:08;;;;;;;9.80;7.40;;;;;;;38.10;31.48;100893.14;103827;279;38857;-74
2023/08/17 09:46:45;;;;;;;7.70;6.70;;;;;;;37.90;31.66;100890.83;103834;278;39457;-75
2023/08/17 09:49:19;;;;;;;10.50;7.70;;;;;;;37.70;31.90;100887.60;103813;279;39041;-75
2023/08/17 09:51:53;;;;;;;11.00;7.40;;;;;;;37.51;31.87;100880.45;103709;279;174079;-75
2023/08/17 09:54:28;;;;;;;13.70;7.00;;;;;;;37.32;31.72;100878.11;103804;279;39477;-75
2023/08/17 09:57:04;;;;;;;11.90;7.80;;;;;;;37.00;32.01;100876.32;103840;279;38675;-74
2023/08/17 09:59:38;;;;;;;9.50;6.80;;;;;;;36.83;32.45;100882.17;103687;279;187420;-74
2023/08/17 10:02:23;;;;;;;13.40;7.30;;;;;;;36.75;32.74;100882.48;103842;279;38498;-74
2023/08/17 10:05:00;;;;;;;9.60;7.00;;;;;;;36.69;32.68;100882.09;103815;267;38479;-73
2023/08/17 10:07:44;;;;;;;7.80;6.50;;;;;;;36.59;32.13;100882.85;103721;279;39723;-74
2023/08/17 10:10:23;;;;;;;7.30;6.60;;;;;;;36.51;32.77;100883.27;103774;279;40045;-74
2023/08/17 10:13:06;;;;;;;9.10;6.60;;;;;;;36.51;32.77;100880.54;103731;279;38191;-75
2023/08/17 10:15:49;;;;;;;8.80;6.40;;;;;;;36.48;32.55;100877.95;103811;278;38530;-74
2023/08/17 10:18:34;;;;;;;7.20;6.30;;;;;;;36.33;32.37;100872.98;103784;278;38489;-74
2023/08/17 10:21:14;;;;;;;11.10;6.60;;;;;;;36.26;33.04;100872.14;103847;279;40117;-74
2023/08/17 10:23:50;;;;;;;8.60;6.20;;;;;;;36.16;32.53;100871.79;103807;279;38841;-74
2023/08/17 10:26:27;;;;;;;9.10;6.40;;;;;;;36.06;32.46;100871.15;103730;279;41309;-75
2023/08/17 10:29:07;;;;;;;7.90;5.60;;;;;;;36.01;32.58;100877.23;103764;279;40139;-75
2023/08/17 10:31:42;;;;;;;7.50;5.10;;;;;;;36.01;31.94;100871.83;103856;279;39893;-74
2023/08/17 10:34:20;;;;;;;6.70;5.50;;;;;;;36.03;31.69;100868.06;103723;280;38376;-74
2023/08/17 10:36:57;;;;;;;5.70;5.10;;;;;;;36.02;31.42;100868.48;103863;279;38240;-74
2023/08/17 10:39:33;;;;;;;6.50;5.60;;;;;;;36.00;31.21;100868.19;103829;279;38366;-73
2023/08/17 10:42:08;;;;;;;10.40;5.60;;;;;;;35.96;31.59;100867.91;103827;279;38426;-74
2023/08/17 10:44:49;;;;;;;9.70;6.20;;;;;;;35.96;31.83;100871.21;103784;279;38891;-74
2023/08/17 10:47:26;;;;;;;7.70;4.70;;;;;;;35.95;31.72;100868.31;103844;279;38504;-75
2023/08/17 10:50:05;;;;;;;6.80;5.20;;;;;;;35.92;31.21;100865.34;103858;279;38446;-75
2023/08/17 10:52:45;;;;;;;5.50;4.80;;;;;;;35.90;30.69;100860.92;103852;279;39568;-75
2023/08/17 10:55:20;;;;;;;7.80;4.90;;;;;;;35.85;30.76;100865.22;103851;279;38262;-74
2023/08/17 10:57:58;;;;;;;7.80;4.50;;;;;;;35.79;29.79;100860.48;103747;279;171485;-73
2023/08/17 11:00:38;;;;;;;5.10;4.60;;;;;;;35.72;30.35;100857.95;103880;279;38672;-73
2023/08/17 11:03:19;;;;;;;8.10;4.70;;;;;;;35.68;30.68;100861.48;103874;279;38249;-73
2023/08/17 11:05:56;;;;;;;8.30;4.80;;;;;;;35.63;29.91;100854.19;103872;279;38549;-74
2023/08/17 11:08:45;;;;;;;6.70;4.70;;;;;;;35.51;29.96;100854.32;103802;278;39637;-74
2023/08/17 11:11:26;;;;;;;6.20;4.60;;;;;;;35.45;30.11;100854.64;103868;279;38443;-74
2023/08/17 11:14:01;;;;;;;8.80;5.10;;;;;;;35.45;30.40;100844.52;103853;279;38485;-74
2023/08/17 11:16:39;;;;;;;9.00;4.60;;;;;;;35.42;30.15;100844.08;103837;279;38808;-76
2023/08/17 11:19:17;;;;;;;4.10;3.70;;;;;;;35.39;30.48;100842.87;103824;302;38586;-74
2023/08/17 11:22:06;;;;;;;4.80;3.50;;;;;;;35.39;29.49;100840.94;103794;279;38237;-76
2023/08/17 11:24:47;;;;;;;4.70;3.50;;;;;;;35.34;29.16;100833.83;103814;279;38383;-74
2023/08/17 11:27:27;;;;;;;5.20;3.70;;;;;;;35.32;29.44;100835.36;103798;278;38397;-74
2023/08/17 11:30:05;;;;;;;4.00;3.30;;;;;;;35.33;29.54;100835.67;103888;278;38286;-75
2023/08/17 11:32:42;;;;;;;6.10;3.30;;;;;;;35.39;29.25;100840.86;103853;294;39415;-74
2023/08/17 11:35:17;;;;;;;5.10;3.50;;;;;;;35.42;29.23;100837.77;103826;278;39456;-75
2023/08/17 11:37:51;;;;;;;7.20;4.30;;;;;;;35.41;29.38;100837.34;103856;279;39654;-75
2023/08/17 11:40:28;;;;;;;5.60;3.50;;;;;;;35.39;29.29;100838.14;103809;278;38843;-74
2023/08/17 11:43:08;;;;;;;5.10;3.70;;;;;;;35.37;29.05;100833.16;103813;279;40396;-75
2023/08/17 11:45:45;;;;;;;5.20;3.50;;;;;;;35.37;29.32;100836.66;102631;279;38777;-75
2023/08/17 11:48:21;;;;;;;4.50;3.10;;;;;;;35.36;28.63;100834.15;103830;279;38728;-75
2023/08/17 11:51:00;;;;;;;8.30;3.50;;;;;;;35.36;28.49;100830.48;103843;278;38471;-75
2023/08/17 11:53:39;;;;;;;4.90;3.80;;;;;;;35.32;28.63;100831.19;103807;279;39701;-75
2023/08/17 11:56:17;;;;;;;4.50;3.00;;;;;;;35.30;28.31;100828.71;103850;279;39405;-74
2023/08/17 11:58:52;;;;;;;4.80;3.30;;;;;;;35.30;27.95;100829.34;103836;279;38279;-73
2023/08/17 12:01:27;;;;;;;3.10;2.90;;;;;;;35.28;28.10;100827.72;103849;279;40146;-75